Time;durP1;ratioP1;P1;durP2;ratioP2;P2;SDS_P1;SDS_P2;PMS_P1;PMS_P2;Temp;Humidity;BMP_temperature;BMP_pressure;BME280_temperature;BME280_humidity;BME280_pressure;Samples;Min_cycle;Max_cycle;Signal;HPM_P1;HPM_P2
2022/04/13 00:00:16;;;;;;;8.65;7.30;;;16.10;76.20;;;;;;6095331;23;99405;-71
2022/04/13 00:02:43;;;;;;;8.07;6.57;;;16.10;77.00;;;;;;6094225;23;94771;-71
2022/04/13 00:05:10;;;;;;;7.75;6.90;;;16.10;76.50;;;;;;6095713;23;92394;-71
2022/04/13 00:07:37;;;;;;;12.75;7.00;;;16.10;76.50;;;;;;6068880;23;95824;-71
2022/04/13 00:10:05;;;;;;;8.75;6.93;;;16.10;76.60;;;;;;6069644;23;92921;-71
2022/04/13 00:12:32;;;;;;;10.02;6.85;;;16.10;76.50;;;;;;6069880;23;92424;-71
2022/04/13 00:15:02;;;;;;;8.90;6.63;;;16.00;76.60;;;;;;6095346;23;97665;-71
2022/04/13 00:17:30;;;;;;;9.10;7.10;;;16.00;76.80;;;;;;6069810;23;93124;-71
2022/04/13 00:20:00;;;;;;;8.13;6.47;;;16.00;77.00;;;;;;6094769;23;92751;-71
2022/04/13 00:22:27;;;;;;;7.70;6.80;;;15.90;77.40;;;;;;6069290;23;92489;-71
2022/04/13 00:24:54;;;;;;;8.15;7.35;;;15.90;77.80;;;;;;6069943;23;92462;-70
2022/04/13 00:27:21;;;;;;;7.80;6.97;;;15.80;78.10;;;;;;6093937;23;95506;-71
2022/04/13 00:29:48;;;;;;;9.30;7.78;;;15.70;78.60;;;;;;6095287;23;95226;-70
2022/04/13 00:32:15;;;;;;;8.73;7.35;;;15.70;78.90;;;;;;6070059;23;92351;-71
2022/04/13 00:34:42;;;;;;;9.85;7.10;;;15.60;79.00;;;;;;6069205;23;97780;-70
2022/04/13 00:37:09;;;;;;;10.07;6.90;;;15.60;79.30;;;;;;6095466;23;93061;-71
2022/04/13 00:39:36;;;;;;;9.27;7.32;;;15.50;79.70;;;;;;6068975;23;95470;-71
2022/04/13 00:42:05;;;;;;;9.50;7.32;;;15.50;79.80;;;;;;6095667;23;92388;-70
2022/04/13 00:44:34;;;;;;;7.47;6.68;;;15.50;80.10;;;;;;6095640;23;91650;-71
2022/04/13 00:47:05;;;;;;;8.27;7.32;;;15.40;80.20;;;;;;6095407;23;93150;-70
2022/04/13 00:49:33;;;;;;;7.53;6.82;;;15.40;80.30;;;;;;6068947;23;95661;-70
2022/04/13 00:52:02;;;;;;;7.72;6.93;;;15.30;80.50;;;;;;6094231;23;94972;-71
2022/04/13 01:22:03;;;;;;;11.30;8.40;;;14.90;83.30;;;;;;6085823;23;92711;-71
2022/04/13 01:24:32;;;;;;;10.18;7.47;;;14.70;84.10;;;;;;6095369;23;92479;-70
2022/04/13 01:26:59;;;;;;;8.70;7.80;;;14.70;84.40;;;;;;6068781;23;92461;-70
2022/04/13 01:29:26;;;;;;;9.27;8.38;;;14.70;84.70;;;;;;6067157;23;98495;-71
2022/04/13 01:31:54;;;;;;;10.20;8.43;;;14.70;84.90;;;;;;6069854;23;98181;-71
2022/04/13 01:34:22;;;;;;;9.85;8.32;;;14.60;85.60;;;;;;6069893;23;92418;-70
2022/04/13 01:36:49;;;;;;;8.27;7.30;;;14.60;85.20;;;;;;6096540;23;92924;-71
2022/04/13 01:39:16;;;;;;;9.00;8.10;;;14.60;85.50;;;;;;6069739;23;95863;-71
2022/04/13 01:41:43;;;;;;;11.23;8.55;;;14.60;85.70;;;;;;6096211;23;92923;-70
2022/04/13 01:44:10;;;;;;;9.85;8.25;;;14.60;85.90;;;;;;6096084;23;92519;-71
2022/04/13 01:46:37;;;;;;;9.20;8.07;;;14.50;86.00;;;;;;6070636;23;92198;-70
2022/04/13 01:49:05;;;;;;;11.70;8.60;;;14.50;86.30;;;;;;6022204;23;95876;-70
2022/04/13 01:51:32;;;;;;;10.20;8.00;;;14.50;86.60;;;;;;6095909;23;92891;-71
2022/04/13 01:53:59;;;;;;;10.07;9.07;;;14.50;86.80;;;;;;6094468;23;99274;-71
2022/04/13 01:56:26;;;;;;;10.90;8.90;;;14.40;87.00;;;;;;6096121;23;92404;-71
2022/04/13 01:58:53;;;;;;;11.27;8.02;;;14.40;87.30;;;;;;6069655;23;95991;-70
2022/04/13 02:01:20;;;;;;;9.73;8.25;;;14.40;87.50;;;;;;6069565;23;95525;-70
2022/04/13 02:03:48;;;;;;;9.40;8.15;;;14.30;87.50;;;;;;6070026;23;92400;-70
2022/04/13 02:06:15;;;;;;;8.75;7.75;;;14.30;87.50;;;;;;6095654;23;92384;-71
2022/04/13 02:08:42;;;;;;;10.23;8.48;;;14.30;87.60;;;;;;6045513;23;96152;-71
2022/04/13 02:11:09;;;;;;;10.20;8.52;;;14.30;87.70;;;;;;6070694;23;93015;-71
2022/04/13 02:13:38;;;;;;;10.18;8.50;;;14.30;87.90;;;;;;6096350;23;92297;-71
2022/04/13 02:16:05;;;;;;;10.80;8.63;;;14.30;88.00;;;;;;6069989;23;92423;-71
2022/04/13 02:18:32;;;;;;;10.15;8.00;;;14.20;88.30;;;;;;6068687;23;95578;-70
2022/04/13 02:20:59;;;;;;;9.70;8.23;;;14.20;88.50;;;;;;6095738;23;95242;-71
2022/04/13 02:23:26;;;;;;;11.80;9.45;;;14.10;88.70;;;;;;6096068;23;92697;-70
2022/04/13 02:25:53;;;;;;;9.48;8.57;;;14.10;88.70;;;;;;6069935;23;92378;-71
2022/04/13 02:28:20;;;;;;;11.50;8.52;;;14.10;88.90;;;;;;6095750;23;93176;-71
2022/04/13 02:30:47;;;;;;;9.88;8.38;;;14.10;89.20;;;;;;6045518;23;95969;-71
2022/04/13 02:33:14;;;;;;;10.30;8.15;;;14.00;89.30;;;;;;6069694;23;92470;-71
2022/04/13 02:35:41;;;;;;;10.25;8.70;;;14.00;89.40;;;;;;6095912;23;103732;-70
2022/04/13 02:38:08;;;;;;;11.55;9.52;;;14.00;89.50;;;;;;6096256;23;93126;-71
2022/04/13 02:40:35;;;;;;;10.05;8.70;;;14.00;89.60;;;;;;6069778;23;92859;-71
2022/04/13 02:43:02;;;;;;;10.90;8.80;;;14.00;89.60;;;;;;6068494;23;94895;-70
2022/04/13 02:45:29;;;;;;;10.07;8.57;;;13.90;89.70;;;;;;6045261;23;92520;-71
2022/04/13 02:47:56;;;;;;;10.07;9.07;;;13.90;89.90;;;;;;6095911;23;93237;-71
2022/04/13 02:50:23;;;;;;;9.93;8.95;;;13.90;90.00;;;;;;6069787;23;93032;-71
2022/04/13 02:52:52;;;;;;;9.88;8.68;;;13.90;90.00;;;;;;6070374;23;93094;-71
2022/04/13 02:55:19;;;;;;;11.73;8.95;;;13.80;90.10;;;;;;6095210;23;100848;-71
2022/04/13 02:57:46;;;;;;;12.10;9.15;;;13.80;90.30;;;;;;6095832;23;93023;-70
2022/04/13 03:00:14;;;;;;;12.07;9.77;;;13.80;90.30;;;;;;6070661;23;92933;-71
2022/04/13 03:02:41;;;;;;;11.38;9.43;;;13.70;90.40;;;;;;6069676;23;92929;-70
2022/04/13 03:05:08;;;;;;;10.13;8.80;;;13.70;90.40;;;;;;6095659;23;92464;-71
2022/04/13 03:07:35;;;;;;;10.48;9.10;;;13.70;90.50;;;;;;6068047;23;95754;-71
2022/04/13 03:10:06;;;;;;;11.63;9.40;;;13.70;90.60;;;;;;6095811;23;95761;-71
2022/04/13 03:12:34;;;;;;;11.80;10.40;;;13.70;90.70;;;;;;6069903;23;92764;-70
2022/04/13 03:15:07;;;;;;;11.05;9.95;;;13.60;90.80;;;;;;6095381;23;92512;-71
2022/04/13 03:17:33;;;;;;;12.95;10.18;;;13.60;90.80;;;;;;6069248;23;106564;-70
2022/04/13 03:20:01;;;;;;;14.13;9.98;;;13.50;90.80;;;;;;6095240;23;93428;-71
2022/04/13 03:22:27;;;;;;;11.93;9.45;;;13.50;90.80;;;;;;6044397;23;92429;-71
2022/04/13 03:24:55;;;;;;;13.30;9.88;;;13.50;90.80;;;;;;6070047;23;91711;-71
2022/04/13 03:27:21;;;;;;;12.10;9.50;;;13.50;90.80;;;;;;6069584;23;93042;-70
2022/04/13 03:29:48;;;;;;;13.27;10.27;;;13.50;90.80;;;;;;6095804;23;93519;-70
2022/04/13 03:32:15;;;;;;;12.77;10.10;;;13.50;90.80;;;;;;6068192;23;95455;-71
2022/04/13 03:34:42;;;;;;;15.25;10.30;;;13.50;90.90;;;;;;6095004;23;92386;-71
2022/04/13 03:37:09;;;;;;;10.73;9.18;;;13.50;91.00;;;;;;6094963;23;93257;-70
2022/04/13 03:39:36;;;;;;;12.80;10.63;;;13.50;91.10;;;;;;6069153;23;95529;-70
2022/04/13 03:42:03;;;;;;;12.38;10.35;;;13.40;91.10;;;;;;6068969;23;92467;-71
2022/04/13 03:44:30;;;;;;;14.23;10.73;;;13.40;91.20;;;;;;6094859;23;92380;-71
2022/04/13 03:46:57;;;;;;;13.43;10.88;;;13.40;91.30;;;;;;6094785;23;96378;-71
2022/04/13 03:49:24;;;;;;;15.77;10.75;;;13.30;91.30;;;;;;6095139;23;92883;-70
2022/04/13 03:51:51;;;;;;;12.88;11.38;;;13.30;91.30;;;;;;6094939;23;92450;-70
2022/04/13 03:54:18;;;;;;;16.23;11.43;;;13.30;91.40;;;;;;6044427;23;101616;-71
2022/04/13 03:56:45;;;;;;;12.43;10.35;;;13.30;91.40;;;;;;6093116;23;95498;-71
2022/04/13 03:59:12;;;;;;;13.30;10.50;;;13.30;91.50;;;;;;6045030;23;95481;-71
2022/04/13 04:01:39;;;;;;;13.18;10.82;;;13.40;91.50;;;;;;6044519;23;92755;-71
2022/04/13 04:04:06;;;;;;;13.70;11.00;;;13.40;91.60;;;;;;6044819;23;92432;-71
2022/04/13 04:06:33;;;;;;;17.52;11.13;;;13.40;91.50;;;;;;6094837;23;93165;-71
2022/04/13 04:09:00;;;;;;;15.18;11.45;;;13.50;91.60;;;;;;6069181;23;92846;-70
2022/04/13 04:11:27;;;;;;;13.60;10.75;;;13.60;91.60;;;;;;6068623;23;92830;-70
2022/04/13 04:13:54;;;;;;;13.07;10.77;;;13.60;91.50;;;;;;6095579;23;91618;-70
2022/04/13 04:16:21;;;;;;;12.40;10.13;;;13.70;91.50;;;;;;6068416;23;98184;-70
2022/04/13 04:18:50;;;;;;;14.18;11.73;;;13.70;91.50;;;;;;6068506;23;95445;-70
2022/04/13 04:21:16;;;;;;;15.63;11.32;;;13.80;91.40;;;;;;6093436;23;94872;-71
2022/04/13 04:23:43;;;;;;;14.68;11.88;;;13.90;91.30;;;;;;6094768;23;92384;-70
2022/04/13 04:26:11;;;;;;;14.25;11.65;;;13.90;91.30;;;;;;6094726;23;92979;-70
2022/04/13 04:28:38;;;;;;;15.27;11.98;;;14.00;91.20;;;;;;6068962;23;93048;-70
2022/04/13 04:31:05;;;;;;;14.90;12.32;;;14.00;91.00;;;;;;6094950;23;92456;-70
2022/04/13 04:33:32;;;;;;;13.55;11.70;;;14.00;90.90;;;;;;6094703;23;92448;-70
2022/04/13 04:35:59;;;;;;;14.20;11.70;;;14.00;90.90;;;;;;6068902;23;92912;-70
2022/04/13 04:38:30;;;;;;;14.00;11.20;;;14.10;90.90;;;;;;6095488;23;92977;-71
2022/04/13 04:40:58;;;;;;;16.25;11.30;;;14.00;90.90;;;;;;6068789;23;92318;-71
2022/04/13 04:43:25;;;;;;;12.90;11.27;;;14.00;90.90;;;;;;6094908;23;92430;-71
2022/04/13 04:45:52;;;;;;;15.50;12.27;;;14.10;90.70;;;;;;6042426;23;98405;-71
2022/04/13 04:48:18;;;;;;;14.48;12.05;;;14.10;90.90;;;;;;6068711;23;95203;-71
2022/04/13 04:50:46;;;;;;;13.63;10.93;;;14.10;90.90;;;;;;6068189;23;92405;-71
2022/04/13 04:53:13;;;;;;;12.98;11.68;;;14.10;90.90;;;;;;6093079;23;92405;-71
2022/04/13 04:55:42;;;;;;;14.00;12.15;;;14.10;90.90;;;;;;6094507;23;92361;-71
2022/04/13 04:58:10;;;;;;;15.75;11.63;;;14.20;90.90;;;;;;6094560;23;92998;-71
2022/04/13 05:00:38;;;;;;;13.15;11.60;;;14.20;90.90;;;;;;6068574;23;92921;-71
2022/04/13 05:03:05;;;;;;;16.33;11.77;;;14.20;90.90;;;;;;6044682;23;91724;-71
2022/04/13 05:05:32;;;;;;;12.48;11.27;;;14.20;90.90;;;;;;6068212;23;94949;-71
2022/04/13 05:07:59;;;;;;;16.10;11.65;;;14.20;90.80;;;;;;6095780;23;92827;-71
2022/04/13 05:10:26;;;;;;;16.08;11.70;;;14.20;90.90;;;;;;6094551;23;94816;-70
2022/04/13 05:12:56;;;;;;;14.43;12.27;;;14.30;90.80;;;;;;6095576;23;92469;-71
2022/04/13 05:15:24;;;;;;;15.02;12.13;;;14.30;90.80;;;;;;6095631;23;92908;-71
2022/04/13 05:17:51;;;;;;;16.88;11.80;;;14.30;90.80;;;;;;6069029;23;98313;-71
2022/04/13 05:20:18;;;;;;;15.93;12.82;;;14.30;90.80;;;;;;6095865;23;92657;-71
2022/04/13 05:22:45;;;;;;;17.85;12.48;;;14.30;90.80;;;;;;6095255;23;92391;-71
2022/04/13 05:25:17;;;;;;;19.25;12.95;;;14.30;90.80;;;;;;6095359;23;92941;-71
2022/04/13 05:27:44;;;;;;;15.50;12.65;;;14.40;90.80;;;;;;6069809;23;92900;-71
2022/04/13 05:30:14;;;;;;;16.27;12.98;;;14.40;90.80;;;;;;6095859;23;92535;-71
2022/04/13 05:32:48;;;;;;;16.70;12.38;;;14.40;90.80;;;;;;6068879;23;92524;-70
2022/04/13 05:35:16;;;;;;;14.63;11.80;;;14.50;90.80;;;;;;6067857;23;98074;-71
2022/04/13 05:37:43;;;;;;;15.32;12.73;;;14.40;90.80;;;;;;6069518;23;95314;-71
2022/04/13 05:40:11;;;;;;;15.70;13.00;;;14.50;90.90;;;;;;6070098;23;92421;-71
2022/04/13 05:42:38;;;;;;;14.98;13.25;;;14.60;90.80;;;;;;6093868;23;92477;-71
2022/04/13 05:45:06;;;;;;;18.90;13.48;;;14.60;90.70;;;;;;6095301;23;93266;-70
2022/04/13 05:47:33;;;;;;;17.17;12.77;;;14.70;90.60;;;;;;6045034;23;92509;-70
2022/04/13 05:50:00;;;;;;;14.40;12.85;;;14.90;90.50;;;;;;6069313;23;92449;-71
2022/04/13 05:52:27;;;;;;;16.25;13.38;;;15.00;90.40;;;;;;6096035;23;91912;-71
2022/04/13 05:54:54;;;;;;;16.50;13.00;;;15.10;90.30;;;;;;6068690;23;98841;-71
2022/04/13 05:57:21;;;;;;;16.25;12.27;;;15.20;90.10;;;;;;6095416;23;93028;-71
2022/04/13 05:59:48;;;;;;;16.42;12.98;;;15.30;90.00;;;;;;6067560;23;94786;-71
2022/04/13 06:02:15;;;;;;;21.98;13.23;;;15.40;89.90;;;;;;6069784;23;92427;-71
2022/04/13 06:04:42;;;;;;;18.52;13.23;;;15.50;89.60;;;;;;6068448;23;109795;-71
2022/04/13 06:07:09;;;;;;;17.88;13.13;;;15.60;89.40;;;;;;6069354;23;94070;-71
2022/04/13 06:09:37;;;;;;;18.85;13.55;;;15.70;89.10;;;;;;6095610;23;92405;-71
2022/04/13 06:12:04;;;;;;;16.80;12.77;;;15.80;89.50;;;;;;6045426;23;92489;-71
2022/04/13 06:14:31;;;;;;;17.73;12.73;;;15.90;88.60;;;;;;6093874;23;95597;-71
2022/04/13 06:17:03;;;;;;;18.80;14.07;;;16.00;88.40;;;;;;6070422;23;91863;-71
2022/04/13 06:19:30;;;;;;;17.15;14.55;;;16.00;88.10;;;;;;6095560;23;92406;-71
2022/04/13 06:21:56;;;;;;;18.33;13.85;;;16.10;87.70;;;;;;6094577;23;96003;-71
2022/04/13 06:24:23;;;;;;;14.60;12.77;;;16.10;87.70;;;;;;6093783;23;95738;-71
2022/04/13 06:26:50;;;;;;;19.55;13.55;;;16.20;87.40;;;;;;6094804;23;94227;-71
2022/04/13 06:29:17;;;;;;;17.63;12.50;;;16.30;87.20;;;;;;6095505;23;93401;-71
2022/04/13 06:31:44;;;;;;;16.45;13.10;;;16.30;86.90;;;;;;6044756;23;92532;-71
2022/04/13 06:34:11;;;;;;;15.73;12.93;;;16.40;86.90;;;;;;6069522;23;95377;-71
2022/04/13 06:36:38;;;;;;;15.57;12.77;;;16.50;86.70;;;;;;6095293;23;92697;-71
2022/04/13 06:39:05;;;;;;;18.67;13.65;;;16.60;86.40;;;;;;6095108;23;92370;-71
2022/04/13 06:41:32;;;;;;;16.65;13.40;;;16.90;85.80;;;;;;6095849;23;91866;-71
2022/04/13 06:43:59;;;;;;;19.08;13.27;;;17.10;85.00;;;;;;6044534;23;95993;-71
2022/04/13 06:46:26;;;;;;;19.55;15.63;;;17.50;84.20;;;;;;6068925;23;101266;-71
2022/04/13 06:48:53;;;;;;;18.58;14.90;;;17.70;83.10;;;;;;6067479;23;94721;-71
2022/04/13 06:51:20;;;;;;;16.50;13.00;;;18.10;82.20;;;;;;6069133;23;92451;-71
2022/04/13 06:53:47;;;;;;;18.35;13.73;;;18.40;81.00;;;;;;6095066;23;93127;-71
2022/04/13 06:56:14;;;;;;;17.92;15.60;;;18.50;80.70;;;;;;6068798;23;95670;-71
2022/04/13 06:58:42;;;;;;;17.25;15.45;;;18.70;80.20;;;;;;6095764;23;92597;-71
2022/04/13 07:01:09;;;;;;;16.48;14.20;;;18.90;79.70;;;;;;6068710;23;92554;-71
2022/04/13 07:03:36;;;;;;;19.08;16.02;;;19.10;79.00;;;;;;6095158;23;95975;-71
2022/04/13 07:06:03;;;;;;;21.30;15.25;;;19.50;78.50;;;;;;6068898;23;94192;-71
2022/04/13 07:08:37;;;;;;;18.50;15.75;;;19.80;77.10;;;;;;6069354;23;92889;-71
2022/04/13 07:11:04;;;;;;;17.77;15.57;;;20.00;76.20;;;;;;6094995;23;92395;-71
2022/04/13 07:13:32;;;;;;;18.00;15.02;;;20.30;75.40;;;;;;6067233;23;98023;-71
2022/04/13 07:15:59;;;;;;;17.52;13.98;;;20.60;74.30;;;;;;6044997;23;95263;-71
2022/04/13 07:18:28;;;;;;;16.48;14.43;;;20.90;74.00;;;;;;6069978;23;92469;-71
2022/04/13 07:20:55;;;;;;;16.45;14.07;;;21.10;73.00;;;;;;6068146;23;102712;-71
2022/04/13 07:23:22;;;;;;;17.02;15.23;;;21.30;72.70;;;;;;6094513;23;93542;-71
2022/04/13 07:25:50;;;;;;;17.17;13.38;;;21.60;71.90;;;;;;6095087;23;92928;-71
2022/04/13 07:28:16;;;;;;;16.25;13.77;;;21.80;71.40;;;;;;6068363;23;92822;-71
2022/04/13 07:30:43;;;;;;;16.00;13.02;;;22.00;70.90;;;;;;6095821;23;91724;-71
2022/04/13 07:33:10;;;;;;;15.57;13.13;;;22.30;70.20;;;;;;6068530;23;95879;-71
2022/04/13 07:35:37;;;;;;;15.85;14.02;;;22.70;69.20;;;;;;6069081;23;93049;-71
2022/04/13 07:38:04;;;;;;;13.80;12.32;;;23.00;67.80;;;;;;6067039;23;94789;-71
2022/04/13 07:40:31;;;;;;;23.25;12.10;;;23.30;67.30;;;;;;6069107;23;93852;-72
2022/04/13 07:42:58;;;;;;;15.13;13.15;;;23.50;67.40;;;;;;6094682;23;93081;-72
2022/04/13 07:45:25;;;;;;;18.58;13.65;;;23.60;66.30;;;;;;6069359;23;92396;-71
2022/04/13 07:47:52;;;;;;;15.43;12.57;;;23.70;65.80;;;;;;6045037;23;92373;-72
2022/04/13 07:50:19;;;;;;;15.23;12.75;;;23.80;65.10;;;;;;6094849;23;98286;-71
2022/04/13 07:52:46;;;;;;;12.65;11.25;;;24.00;64.70;;;;;;6095230;23;93156;-71
2022/04/13 07:55:13;;;;;;;14.82;13.45;;;24.00;64.40;;;;;;6095166;23;92967;-71
2022/04/13 07:57:41;;;;;;;17.27;12.13;;;24.20;64.00;;;;;;6068782;23;92425;-71
2022/04/13 08:00:10;;;;;;;37.55;18.45;;;24.50;63.20;;;;;;6094874;23;92394;-72
2022/04/13 08:02:41;;;;;;;21.17;11.63;;;24.90;62.50;;;;;;6093399;23;95727;-71
2022/04/13 08:05:09;;;;;;;42.30;12.65;;;25.20;62.00;;;;;;6068663;23;95358;-71
2022/04/13 08:07:36;;;;;;;12.25;9.18;;;25.40;60.80;;;;;;6094424;23;102284;-72
2022/04/13 08:10:04;;;;;;;54.65;15.38;;;25.50;60.60;;;;;;6095430;23;92433;-72
2022/04/13 08:12:31;;;;;;;55.88;15.20;;;25.50;60.40;;;;;;6094712;23;93158;-72
2022/04/13 08:14:59;;;;;;;22.52;11.30;;;25.50;60.30;;;;;;6094563;23;93010;-72
2022/04/13 08:17:27;;;;;;;26.42;10.52;;;25.30;60.30;;;;;;6068714;23;93018;-72
2022/04/13 08:19:55;;;;;;;13.52;9.18;;;25.00;59.80;;;;;;6069603;23;91729;-72
2022/04/13 08:22:23;;;;;;;10.77;8.60;;;24.80;60.40;;;;;;6095237;23;93243;-71
2022/04/13 08:24:50;;;;;;;11.55;10.52;;;24.50;61.10;;;;;;6069210;23;94003;-72
2022/04/13 08:27:18;;;;;;;11.02;9.05;;;24.40;61.80;;;;;;6093452;23;94858;-72
2022/04/13 08:29:49;;;;;;;11.55;9.40;;;24.40;61.80;;;;;;6069243;23;92539;-72
2022/04/13 08:32:17;;;;;;;12.82;9.80;;;24.50;61.90;;;;;;6095187;23;93176;-72
2022/04/13 08:34:45;;;;;;;13.05;11.35;;;24.40;61.80;;;;;;6069777;23;92500;-72
2022/04/13 08:37:13;;;;;;;11.73;10.52;;;24.20;61.80;;;;;;6094734;23;92365;-72
2022/04/13 08:39:40;;;;;;;12.25;10.07;;;24.00;62.40;;;;;;6094864;23;92939;-72
2022/04/13 08:42:43;;;;;;;12.15;9.75;;;23.80;62.90;;;;;;6043292;23;106655;-72
2022/04/13 08:45:25;;;;;;;10.37;8.93;;;23.70;63.40;;;;;;6058106;23;93937;-72
2022/04/13 08:47:59;;;;;;;11.13;9.45;;;23.50;64.10;;;;;;6069374;23;92363;-72
2022/04/13 08:50:30;;;;;;;11.70;9.02;;;23.30;65.00;;;;;;6069348;23;92405;-72
2022/04/13 08:53:02;;;;;;;12.20;9.93;;;23.10;66.10;;;;;;6067909;23;95449;-72
2022/04/13 08:55:31;;;;;;;12.65;9.93;;;22.90;65.90;;;;;;6095264;23;95294;-71
2022/04/13 08:58:25;;;;;;;11.98;10.02;;;22.80;66.50;;;;;;6095471;23;92405;-71
2022/04/13 09:00:56;;;;;;;12.63;10.48;;;22.80;66.30;;;;;;6069012;23;92412;-72
2022/04/13 09:03:43;;;;;;;15.85;10.57;;;22.70;66.50;;;;;;6044085;23;95822;-72
2022/04/13 09:06:11;;;;;;;12.82;10.82;;;22.80;66.40;;;;;;6094010;23;92943;-72
2022/04/13 09:09:08;;;;;;;20.23;10.23;;;22.80;66.70;;;;;;6094839;23;92418;-72
2022/04/13 09:11:39;;;;;;;15.30;10.40;;;22.90;66.40;;;;;;6089350;23;91644;-72
2022/04/13 09:14:07;;;;;;;15.63;12.85;;;22.80;66.60;;;;;;6068171;23;95662;-72
2022/04/13 09:16:35;;;;;;;13.30;9.95;;;22.70;66.60;;;;;;6068532;23;92672;-72
2022/04/13 09:19:03;;;;;;;12.68;9.10;;;22.80;66.50;;;;;;6093912;23;95234;-71
2022/04/13 09:21:32;;;;;;;14.48;10.40;;;22.90;66.40;;;;;;6069023;23;92404;-72
2022/04/13 09:24:00;;;;;;;11.68;9.82;;;23.00;66.10;;;;;;6094214;23;93236;-71
2022/04/13 09:26:28;;;;;;;12.82;10.35;;;23.00;66.10;;;;;;6068725;23;93131;-72
2022/04/13 09:28:55;;;;;;;12.57;11.25;;;23.10;66.10;;;;;;6068392;23;92837;-72
2022/04/13 09:31:22;;;;;;;11.68;10.02;;;23.10;66.20;;;;;;6068306;23;92465;-72
2022/04/13 09:33:49;;;;;;;11.73;10.50;;;23.10;66.20;;;;;;6091989;23;106192;-72
2022/04/13 09:36:19;;;;;;;11.18;9.98;;;23.10;66.50;;;;;;6094385;23;91848;-71
2022/04/13 09:38:47;;;;;;;15.45;10.15;;;23.10;66.70;;;;;;6068478;23;92487;-72
2022/04/13 09:41:14;;;;;;;15.38;12.10;;;23.10;66.60;;;;;;6094098;23;92400;-71
2022/04/13 09:43:54;;;;;;;13.90;10.57;;;23.10;66.90;;;;;;6092670;23;95681;-71
2022/04/13 09:46:28;;;;;;;10.63;9.52;;;23.10;66.70;;;;;;6067604;23;97867;-73
2022/04/13 09:49:12;;;;;;;9.25;8.20;;;23.10;66.60;;;;;;6095199;23;92509;-72
2022/04/13 09:51:42;;;;;;;10.73;9.63;;;23.00;66.50;;;;;;6096088;23;92472;-72
2022/04/13 09:54:10;;;;;;;9.10;8.07;;;22.90;67.30;;;;;;6095763;23;93096;-72
2022/04/13 09:56:43;;;;;;;13.73;9.90;;;22.90;67.50;;;;;;6045563;23;95399;-72
2022/04/13 09:59:11;;;;;;;11.03;9.83;;;22.90;67.60;;;;;;6070375;23;92322;-72
2022/04/13 10:01:37;;;;;;;11.48;10.30;;;23.00;68.40;;;;;;6096178;23;102548;-72
2022/04/13 10:04:05;;;;;;;13.73;10.27;;;23.10;67.90;;;;;;6095449;23;93316;-72
2022/04/13 10:06:33;;;;;;;13.10;11.77;;;23.10;67.40;;;;;;6095135;23;93047;-72
2022/04/13 10:09:01;;;;;;;14.05;9.52;;;23.10;67.50;;;;;;6068330;23;95085;-72
2022/04/13 10:11:28;;;;;;;13.35;8.93;;;23.10;66.90;;;;;;6070273;23;92842;-72
2022/04/13 10:13:55;;;;;;;10.48;9.48;;;23.10;67.70;;;;;;6045654;23;93295;-72
2022/04/13 10:16:22;;;;;;;13.27;8.05;;;23.10;67.50;;;;;;6069450;23;95625;-72
2022/04/13 10:19:00;;;;;;;11.25;6.85;;;23.10;67.50;;;;;;6045746;23;92562;-72
2022/04/13 10:21:40;;;;;;;8.55;6.22;;;23.20;67.10;;;;;;6069257;23;92496;-72
2022/04/13 10:24:10;;;;;;;10.07;7.45;;;23.20;67.00;;;;;;6096270;23;93100;-72
2022/04/13 10:26:39;;;;;;;7.55;5.80;;;23.10;66.90;;;;;;6096574;23;92933;-72
2022/04/13 10:29:16;;;;;;;7.55;6.72;;;23.10;67.20;;;;;;6096263;23;92412;-72
2022/04/13 10:32:14;;;;;;;7.53;5.97;;;23.20;66.80;;;;;;6069551;23;92412;-72
2022/04/13 10:34:47;;;;;;;8.95;5.53;;;23.10;66.70;;;;;;6094425;23;94747;-72
2022/04/13 10:37:16;;;;;;;8.52;7.18;;;23.10;67.20;;;;;;6095708;23;95342;-72
2022/04/13 10:39:47;;;;;;;7.57;6.28;;;23.10;67.50;;;;;;6096378;23;92715;-72
2022/04/13 10:42:17;;;;;;;8.63;5.78;;;23.10;66.90;;;;;;6070059;23;92424;-72
2022/04/13 10:44:46;;;;;;;8.27;5.50;;;23.20;67.10;;;;;;6095515;23;109240;-72
2022/04/13 10:47:24;;;;;;;9.02;6.30;;;23.30;67.00;;;;;;6069950;23;92953;-72
2022/04/13 10:50:03;;;;;;;10.80;7.63;;;23.40;66.60;;;;;;6096271;23;92335;-72
2022/04/13 10:52:34;;;;;;;7.53;5.47;;;23.60;66.60;;;;;;6096284;23;92115;-72
2022/04/13 10:55:07;;;;;;;9.93;5.63;;;23.70;66.40;;;;;;6095916;23;93126;-72
2022/04/13 10:57:45;;;;;;;10.35;6.40;;;24.00;66.20;;;;;;6095562;23;92839;-72
2022/04/13 11:00:16;;;;;;;12.13;5.95;;;24.30;64.90;;;;;;6094622;23;94791;-72
2022/04/13 11:02:48;;;;;;;22.02;7.25;;;24.40;64.80;;;;;;6069052;23;92442;-72
2022/04/13 11:05:15;;;;;;;10.07;8.43;;;24.50;64.50;;;;;;6094478;23;94667;-72
2022/04/13 11:07:43;;;;;;;10.48;7.03;;;24.50;64.50;;;;;;6095355;23;104735;-72
2022/04/13 11:10:18;;;;;;;21.13;6.50;;;24.60;63.60;;;;;;6069597;23;92465;-72
2022/04/13 11:12:47;;;;;;;7.18;6.13;;;24.70;63.50;;;;;;6096034;23;92426;-72
2022/04/13 11:15:18;;;;;;;45.22;10.73;;;24.70;63.20;;;;;;6095899;23;93298;-72
2022/04/13 11:17:45;;;;;;;9.82;4.72;;;24.70;63.50;;;;;;6095532;23;92762;-72
2022/04/13 11:20:22;;;;;;;69.90;11.88;;;24.80;63.30;;;;;;6095897;23;92380;-72
2022/04/13 11:23:15;;;;;;;7.38;4.18;;;25.10;62.20;;;;;;6094996;23;92413;-72
2022/04/13 11:25:51;;;;;;;33.75;8.52;;;25.10;60.70;;;;;;6093997;23;95503;-71
2022/04/13 11:28:35;;;;;;;8.43;5.13;;;25.00;61.70;;;;;;6095644;23;95385;-72
2022/04/13 11:31:07;;;;;;;4.00;3.28;;;25.10;60.60;;;;;;6095988;23;92298;-72
2022/04/13 11:33:41;;;;;;;9.38;3.83;;;25.10;59.80;;;;;;6070026;23;92424;-71
2022/04/13 11:36:08;;;;;;;6.15;2.90;;;25.20;59.80;;;;;;6095548;23;96682;-71
2022/04/13 11:38:52;;;;;;;4.28;2.95;;;25.20;59.20;;;;;;6095869;23;93013;-71
2022/04/13 11:41:23;;;;;;;3.40;3.07;;;25.30;59.20;;;;;;6095795;23;92288;-72
2022/04/13 11:43:50;;;;;;;7.43;3.53;;;25.30;59.20;;;;;;6070495;23;91633;-71
2022/04/13 11:46:39;;;;;;;4.95;2.60;;;25.50;58.90;;;;;;6044882;23;101173;-71
2022/04/13 11:49:10;;;;;;;3.60;2.70;;;25.60;57.90;;;;;;6069493;23;95453;-71
2022/04/13 11:51:38;;;;;;;4.57;3.97;;;25.70;57.60;;;;;;6068123;23;94891;-71
2022/04/13 11:54:13;;;;;;;3.83;2.22;;;25.60;57.30;;;;;;6095781;23;93154;-71
2022/04/13 11:56:51;;;;;;;5.25;2.95;;;25.60;57.80;;;;;;6095344;23;93079;-71
2022/04/13 11:59:47;;;;;;;5.07;3.53;;;25.60;58.00;;;;;;6095576;23;93048;-71
2022/04/13 12:02:17;;;;;;;6.40;4.25;;;25.50;57.90;;;;;;6069775;23;92434;-71
2022/04/13 12:04:47;;;;;;;5.88;4.60;;;25.30;58.30;;;;;;6095708;23;93163;-71
2022/04/13 12:07:16;;;;;;;5.63;4.70;;;25.30;58.60;;;;;;6045039;23;95710;-71
2022/04/13 12:09:44;;;;;;;8.30;5.05;;;25.10;58.60;;;;;;6095620;23;92880;-71
2022/04/13 12:12:15;;;;;;;8.35;6.25;;;25.10;59.40;;;;;;6095723;23;92357;-71
2022/04/13 12:14:45;;;;;;;7.10;5.20;;;25.00;59.40;;;;;;6095106;23;92450;-71
2022/04/13 12:17:14;;;;;;;6.25;5.60;;;24.80;59.80;;;;;;6093707;23;95467;-72
2022/04/13 12:19:45;;;;;;;7.32;4.40;;;24.80;60.30;;;;;;6045037;23;94167;-72
2022/04/13 12:22:20;;;;;;;4.22;3.67;;;24.80;60.20;;;;;;6095025;23;92508;-71
2022/04/13 12:24:59;;;;;;;7.30;5.75;;;24.90;60.40;;;;;;6044878;23;92767;-72
2022/04/13 12:27:26;;;;;;;4.38;3.95;;;25.00;59.90;;;;;;6045343;23;92485;-71
2022/04/13 12:30:11;;;;;;;5.20;3.80;;;24.90;59.30;;;;;;6068333;23;114472;-71
2022/04/13 12:32:48;;;;;;;6.25;3.53;;;25.00;58.40;;;;;;6095452;23;92447;-71
2022/04/13 12:35:15;;;;;;;4.47;3.10;;;25.10;58.80;;;;;;6095973;23;91660;-71
2022/04/13 12:37:53;;;;;;;4.00;3.28;;;25.10;58.30;;;;;;6094974;23;93420;-71
2022/04/13 12:40:26;;;;;;;4.03;3.10;;;25.30;57.80;;;;;;6075526;23;92554;-72
2022/04/13 12:42:53;;;;;;;7.33;3.10;;;25.30;57.70;;;;;;6035339;23;94823;-72
2022/04/13 12:45:28;;;;;;;5.38;2.50;;;25.30;57.30;;;;;;6035438;23;92435;-72
2022/04/13 12:47:55;;;;;;;2.92;2.00;;;25.40;57.10;;;;;;6036595;23;93113;-72
2022/04/13 12:50:22;;;;;;;5.15;4.65;;;25.30;56.50;;;;;;6036687;23;92850;-72
2022/04/13 12:52:58;;;;;;;4.40;2.65;;;25.10;55.20;;;;;;6034366;23;102667;-71
2022/04/13 12:55:25;;;;;;;3.85;2.10;;;24.90;55.20;;;;;;6036746;23;92786;-71
2022/04/13 12:57:53;;;;;;;4.90;3.15;;;24.70;56.30;;;;;;6036289;23;92997;-71
2022/04/13 13:00:45;;;;;;;2.83;2.15;;;24.60;56.70;;;;;;6036997;23;92937;-72
2022/04/13 13:03:12;;;;;;;5.05;4.25;;;24.60;57.40;;;;;;6036977;23;92378;-71
2022/04/13 13:05:39;;;;;;;4.78;3.88;;;24.50;58.00;;;;;;6011124;23;92454;-71
2022/04/13 13:08:06;;;;;;;6.38;3.40;;;24.40;58.40;;;;;;6033198;23;98103;-71
2022/04/13 13:10:34;;;;;;;5.38;3.20;;;24.20;58.50;;;;;;6036165;23;95411;-71
2022/04/13 13:13:12;;;;;;;6.75;5.45;;;24.10;59.20;;;;;;6036232;23;97576;-71